createdAt,value
2018-07-08T00:01:06.219Z,102112.02
2018-07-08T00:04:30.787Z,102112.14
2018-07-08T00:07:56.427Z,102107.39
2018-07-08T00:11:21.011Z,102106.02
2018-07-08T00:14:45.459Z,102105.39
2018-07-08T00:18:09.997Z,102113.56
2018-07-08T00:21:34.452Z,102113.46
2018-07-08T00:24:58.974Z,102105.06
2018-07-08T00:28:23.478Z,102110.30
2018-07-08T00:31:47.991Z,102108.05
2018-07-08T00:35:12.513Z,102098.48
2018-07-08T00:38:37.050Z,102102.84
2018-07-08T00:42:01.302Z,102102.33
2018-07-08T00:45:25.814Z,102106.42
2018-07-08T00:48:50.351Z,102101.91
2018-07-08T00:52:14.883Z,102111.45
2018-07-08T00:55:39.452Z,102115.50
2018-07-08T00:59:03.960Z,102121.21
2018-07-08T01:02:28.469Z,102125.55
2018-07-08T01:05:53.066Z,102130.52
2018-07-08T01:09:17.569Z,102126.07
2018-07-08T01:12:42.131Z,102132.25
2018-07-08T01:16:06.803Z,102133.87
2018-07-08T01:19:32.490Z,102131.76
2018-07-08T01:22:57.019Z,102138.61
2018-07-08T01:26:21.619Z,102133.59
2018-07-08T01:29:46.131Z,102135.23
2018-07-08T01:33:10.633Z,102130.36
2018-07-08T01:36:35.111Z,102133.96
2018-07-08T01:39:59.654Z,102140.53
2018-07-08T01:43:24.123Z,102146.62
2018-07-08T01:46:48.627Z,102147.02
2018-07-08T01:50:13.169Z,102147.23
2018-07-08T01:53:37.696Z,102150.02
2018-07-08T01:57:02.269Z,102154.77
2018-07-08T02:00:26.861Z,102155.80
2018-07-08T02:03:52.697Z,102159.67
2018-07-08T02:07:17.492Z,102161.73
2018-07-08T02:10:42.052Z,102166.20
2018-07-08T02:14:06.520Z,102168.27
2018-07-08T02:17:31.042Z,102173.03
2018-07-08T02:20:55.500Z,102175.67
2018-07-08T02:24:20.439Z,102172.95
2018-07-08T02:27:44.857Z,102176.05
2018-07-08T02:31:09.583Z,102178.31
2018-07-08T02:34:34.179Z,102180.28
2018-07-08T02:37:59.978Z,102189.16
2018-07-08T02:41:24.392Z,102185.20
2018-07-08T02:44:49.118Z,102195.17
2018-07-08T02:48:13.604Z,102190.45
2018-07-08T02:51:38.054Z,102194.67
2018-07-08T02:55:02.456Z,102188.16
2018-07-08T02:58:26.985Z,102186.41
2018-07-08T03:01:51.386Z,102186.78
2018-07-08T03:05:15.808Z,102181.83
2018-07-08T03:08:40.294Z,102180.81
2018-07-08T03:12:04.760Z,102181.41
2018-07-08T03:15:29.163Z,102178.30
2018-07-08T03:18:53.678Z,102182.38
2018-07-08T03:22:18.124Z,102180.12
2018-07-08T03:25:42.517Z,102180.43
2018-07-08T03:29:07.009Z,102185.77
2018-07-08T03:32:31.398Z,102186.67
2018-07-08T03:35:55.863Z,102183.64
2018-07-08T03:39:20.302Z,102184.41
2018-07-08T03:42:44.788Z,102190.64
2018-07-08T03:46:09.275Z,102187.95
2018-07-08T03:49:33.727Z,102194.88
2018-07-08T03:52:58.197Z,102190.23
2018-07-08T03:56:22.736Z,102203.05
2018-07-08T03:59:47.153Z,102199.11
2018-07-08T04:03:11.610Z,102201.34
2018-07-08T04:06:36.646Z,102201.83
2018-07-08T04:10:01.106Z,102203.91
2018-07-08T04:13:25.583Z,102198.39
2018-07-08T04:16:50.091Z,102207.23
2018-07-08T04:20:14.551Z,102203.08
2018-07-08T04:23:39.037Z,102198.23
2018-07-08T04:27:03.639Z,102202.09
2018-07-08T04:30:28.618Z,102204.44
2018-07-08T04:33:53.159Z,102206.34
2018-07-08T04:37:17.694Z,102215.86
2018-07-08T04:40:42.179Z,102216.05
2018-07-08T04:44:06.310Z,102226.94
2018-07-08T04:47:30.916Z,102232.98
2018-07-08T04:50:55.379Z,102235.92
2018-07-08T04:54:19.892Z,102238.48
2018-07-08T04:57:44.401Z,102237.77
2018-07-08T05:01:08.922Z,102237.06
2018-07-08T05:04:33.446Z,102239.89
2018-07-08T05:07:57.892Z,102240.05
2018-07-08T05:11:23.052Z,102243.42
2018-07-08T05:15:02.487Z,102246.34
2018-07-08T05:18:28.572Z,102254.55
2018-07-08T05:21:53.663Z,102253.11
2018-07-08T05:25:20.054Z,102254.17
2018-07-08T05:28:46.309Z,102253.59
2018-07-08T05:32:11.740Z,102258.69
2018-07-08T05:35:36.783Z,102261.14
2018-07-08T05:39:01.515Z,102256.81
2018-07-08T05:42:27.173Z,102261.75
2018-07-08T05:45:52.045Z,102263.36
2018-07-08T05:49:17.837Z,102264.69
2018-07-08T05:52:42.967Z,102261.91
2018-07-08T05:56:09.440Z,102256.44
2018-07-08T05:59:34.859Z,102248.38
2018-07-08T06:03:01.290Z,102249.42
2018-07-08T06:06:27.365Z,102242.91
2018-07-08T06:09:53.464Z,102245.26
2018-07-08T06:13:19.008Z,102247.33
2018-07-08T06:16:44.449Z,102239.67
2018-07-08T06:20:11.080Z,102243.23
2018-07-08T06:23:35.754Z,102234.78
2018-07-08T06:27:01.793Z,102244.80
2018-07-08T06:30:27.357Z,102252.34
2018-07-08T06:33:55.487Z,102251.85
2018-07-08T06:37:19.907Z,102257.81
2018-07-08T06:40:56.400Z,102250.05
2018-07-08T06:44:22.198Z,102252.78
2018-07-08T06:47:46.870Z,102262.06
2018-07-08T06:51:11.473Z,102260.48
2018-07-08T06:54:37.530Z,102251.01
2018-07-08T06:58:02.008Z,102254.53
2018-07-08T07:01:26.563Z,102254.67
2018-07-08T07:04:50.962Z,102249.45
2018-07-08T07:08:16.141Z,102248.59
2018-07-08T07:11:41.021Z,102248.02
2018-07-08T07:15:05.637Z,102253.81
2018-07-08T07:18:30.114Z,102260.55
2018-07-08T07:21:54.691Z,102258.44
2018-07-08T07:25:19.128Z,102263.68
2018-07-08T07:28:43.566Z,102251.50
2018-07-08T07:32:10.655Z,102258.53
2018-07-08T07:35:36.323Z,102253.75
2018-07-08T07:39:00.854Z,102256.08
2018-07-08T07:42:25.336Z,102260.47
2018-07-08T07:45:50.375Z,102267.17
2018-07-08T07:49:14.957Z,102268.27
2018-07-08T07:52:39.462Z,102272.45
2018-07-08T07:56:04.164Z,102261.15
2018-07-08T07:59:28.692Z,102265.17
2018-07-08T08:02:53.158Z,102263.52
2018-07-08T08:06:17.691Z,102257.72
2018-07-08T08:09:42.191Z,102255.14
2018-07-08T08:13:06.689Z,102253.77
2018-07-08T08:16:31.166Z,102255.56
2018-07-08T08:19:55.637Z,102254.44
2018-07-08T08:23:20.124Z,102252.70
2018-07-08T08:26:44.715Z,102254.88
2018-07-08T08:30:09.173Z,102254.99
2018-07-08T08:33:33.674Z,102253.69
2018-07-08T08:36:58.153Z,102259.64
2018-07-08T08:40:24.691Z,102251.48
2018-07-08T08:43:49.172Z,102262.07
2018-07-08T08:47:14.046Z,102260.09
2018-07-08T08:50:38.600Z,102261.06
2018-07-08T08:54:03.110Z,102254.52
2018-07-08T08:57:27.706Z,102260.19
2018-07-08T09:00:53.962Z,102262.12
2018-07-08T09:04:24.141Z,102259.32
2018-07-08T09:07:48.622Z,102266.16
2018-07-08T09:11:13.125Z,102264.53
2018-07-08T09:14:38.038Z,102262.34
2018-07-08T09:18:02.574Z,102265.00
2018-07-08T09:21:27.222Z,102264.01
2018-07-08T09:24:52.271Z,102257.52
2018-07-08T09:28:17.647Z,102258.34
2018-07-08T09:31:42.288Z,102251.97
2018-07-08T09:35:06.744Z,102249.19
2018-07-08T09:38:31.349Z,102257.13
2018-07-08T09:41:57.490Z,102255.45
2018-07-08T09:45:21.892Z,102261.52
2018-07-08T09:48:46.310Z,102258.19
2018-07-08T09:52:10.791Z,102261.16
2018-07-08T09:55:35.181Z,102254.10
2018-07-08T09:58:59.890Z,102247.66
2018-07-08T10:02:24.372Z,102246.53
2018-07-08T10:05:48.852Z,102245.34
2018-07-08T10:09:14.757Z,102244.05
2018-07-08T10:12:39.290Z,102241.47
2018-07-08T10:16:03.725Z,102242.72
2018-07-08T10:19:28.527Z,102248.41
2018-07-08T10:22:52.922Z,102247.11
2018-07-08T10:26:17.377Z,102239.20
2018-07-08T10:29:41.849Z,102232.53
2018-07-08T10:33:06.364Z,102234.91
2018-07-08T10:36:30.883Z,102243.03
2018-07-08T10:39:55.335Z,102242.33
2018-07-08T10:43:19.846Z,102233.05
2018-07-08T10:46:44.436Z,102239.20
2018-07-08T10:50:08.996Z,102230.81
2018-07-08T10:53:33.521Z,102225.82
2018-07-08T10:56:58.121Z,102237.37
2018-07-08T11:00:22.638Z,102230.96
2018-07-08T11:03:48.251Z,102220.79
2018-07-08T11:07:12.631Z,102234.41
2018-07-08T11:10:37.100Z,102214.57
2018-07-08T11:14:01.585Z,102204.88
2018-07-08T11:17:26.142Z,102205.61
2018-07-08T11:20:50.647Z,102197.53
2018-07-08T11:24:15.128Z,102195.78
2018-07-08T11:27:39.655Z,102191.31
2018-07-08T11:31:04.138Z,102185.06
2018-07-08T11:34:28.594Z,102194.09
2018-07-08T11:37:53.124Z,102185.00
2018-07-08T11:41:17.672Z,102192.13
2018-07-08T11:44:42.277Z,102185.22
2018-07-08T11:48:06.965Z,102180.03
2018-07-08T11:51:31.531Z,102193.13
2018-07-08T11:54:55.977Z,102180.88
2018-07-08T11:58:20.539Z,102179.45
2018-07-08T12:01:45.062Z,102174.02
2018-07-08T12:05:09.584Z,102171.23
2018-07-08T12:08:34.118Z,102168.73
2018-07-08T12:11:58.624Z,102165.59
2018-07-08T12:15:23.106Z,102168.77
2018-07-08T12:18:47.639Z,102167.69
2018-07-08T12:22:12.279Z,102164.66
2018-07-08T12:25:36.726Z,102164.89
2018-07-08T12:29:01.260Z,102160.23
2018-07-08T12:32:25.831Z,102165.57
2018-07-08T12:35:50.386Z,102158.14
2018-07-08T12:39:15.328Z,102159.53
2018-07-08T12:42:39.957Z,102158.63
2018-07-08T12:46:04.875Z,102151.84
2018-07-08T12:49:29.426Z,102145.52
2018-07-08T12:52:53.911Z,102151.58
2018-07-08T12:56:18.380Z,102151.58
2018-07-08T12:59:42.903Z,102137.30
2018-07-08T13:03:09.829Z,102136.45
2018-07-08T13:06:34.357Z,102131.79
2018-07-08T13:09:59.204Z,102131.86
2018-07-08T13:13:25.493Z,102136.50
2018-07-08T13:16:50.137Z,102125.48
2018-07-08T13:20:14.668Z,102134.54
2018-07-08T13:23:39.906Z,102128.03
2018-07-08T13:27:04.510Z,102136.98
2018-07-08T13:30:29.057Z,102133.53
2018-07-08T13:33:53.612Z,102133.53
2018-07-08T13:37:18.132Z,102140.50
2018-07-08T13:40:42.704Z,102122.75
2018-07-08T13:44:07.482Z,102121.20
2018-07-08T13:47:32.074Z,102122.25
2018-07-08T13:50:56.550Z,102115.70
2018-07-08T13:54:21.086Z,102117.41
2018-07-08T13:57:45.579Z,102116.20
2018-07-08T14:01:10.125Z,102110.72
2018-07-08T14:04:34.635Z,102120.12
2018-07-08T14:07:59.078Z,102108.40
2018-07-08T14:11:23.668Z,102109.33
2018-07-08T14:14:48.178Z,102107.45
2018-07-08T14:18:12.602Z,102092.44
2018-07-08T14:21:37.135Z,102090.69
2018-07-08T14:25:01.639Z,102098.27
2018-07-08T14:28:26.221Z,102091.53
2018-07-08T14:31:50.755Z,102089.00
2018-07-08T14:35:18.060Z,102088.54
2018-07-08T14:38:42.652Z,102077.47
2018-07-08T14:42:07.352Z,102087.81
2018-07-08T14:45:31.917Z,102075.87
2018-07-08T14:48:56.412Z,102074.98
2018-07-08T14:52:20.916Z,102064.64
2018-07-08T14:55:45.692Z,102075.42
2018-07-08T14:59:10.394Z,102066.35
2018-07-08T15:02:35.355Z,102069.19
2018-07-08T15:05:59.892Z,102068.69
2018-07-08T15:09:26.665Z,102060.48
2018-07-08T15:12:51.077Z,102065.02
2018-07-08T15:16:15.587Z,102065.26
2018-07-08T15:19:40.239Z,102063.56
2018-07-08T15:23:04.843Z,102058.48
2018-07-08T15:26:29.350Z,102057.73
2018-07-08T15:29:54.107Z,102058.83
2018-07-08T15:33:18.586Z,102050.11
2018-07-08T15:36:43.020Z,102052.35
2018-07-08T15:40:07.615Z,102052.42
2018-07-08T15:43:33.132Z,102046.70
2018-07-08T15:46:57.667Z,102046.85
2018-07-08T15:50:22.059Z,102038.36
2018-07-08T15:53:46.512Z,102048.30
2018-07-08T15:57:10.969Z,102036.13
2018-07-08T16:00:35.634Z,102039.97
2018-07-08T16:04:00.161Z,102042.91
2018-07-08T16:07:24.615Z,102032.43
2018-07-08T16:10:49.112Z,102022.50
2018-07-08T16:14:13.606Z,102028.66
2018-07-08T16:17:38.134Z,102025.35
2018-07-08T16:21:03.212Z,102028.62
2018-07-08T16:24:27.748Z,102022.90
2018-07-08T16:27:52.280Z,102024.70
2018-07-08T16:31:16.765Z,102018.92
2018-07-08T16:34:40.925Z,102017.75
2018-07-08T16:38:06.164Z,102014.28
2018-07-08T16:41:30.657Z,102017.91
2018-07-08T16:44:55.781Z,102014.02
2018-07-08T16:48:20.254Z,102017.88
2018-07-08T16:51:44.793Z,102012.84
2018-07-08T16:55:09.272Z,102013.03
2018-07-08T16:58:33.801Z,102011.56
2018-07-08T17:01:58.722Z,102017.03
2018-07-08T17:05:23.253Z,102012.44
2018-07-08T17:08:47.720Z,102012.30
2018-07-08T17:12:12.126Z,102005.04
2018-07-08T17:15:36.632Z,102007.25
2018-07-08T17:19:01.174Z,102014.20
2018-07-08T17:22:25.729Z,102002.13
2018-07-08T17:25:50.751Z,102009.64
2018-07-08T17:29:15.389Z,102005.52
2018-07-08T17:32:39.964Z,102002.55
2018-07-08T17:36:04.476Z,102004.23
2018-07-08T17:39:28.989Z,101999.31
2018-07-08T17:42:53.523Z,102001.56
2018-07-08T17:46:21.557Z,101998.09
2018-07-08T17:49:46.242Z,102003.54
2018-07-08T17:53:12.046Z,101997.58
2018-07-08T17:56:37.252Z,102001.92
2018-07-08T18:00:01.852Z,102005.30
2018-07-08T18:03:26.281Z,102008.38
2018-07-08T18:06:51.816Z,102010.19
2018-07-08T18:10:16.245Z,102007.45
2018-07-08T18:13:40.807Z,102003.53
2018-07-08T18:17:05.295Z,101996.94
2018-07-08T18:20:29.771Z,102006.02
2018-07-08T18:23:54.420Z,102005.63
2018-07-08T18:27:19.267Z,101998.94
2018-07-08T18:30:43.813Z,101999.13
2018-07-08T18:34:08.422Z,101994.95
2018-07-08T18:37:33.008Z,101996.90
2018-07-08T18:40:57.465Z,101997.41
2018-07-08T18:44:21.991Z,102004.73
2018-07-08T18:47:46.422Z,101999.91
2018-07-08T18:51:10.921Z,102003.16
2018-07-08T18:54:35.482Z,102004.48
2018-07-08T18:58:00.271Z,102006.32
2018-07-08T19:01:24.720Z,102007.48
2018-07-08T19:04:49.329Z,101997.66
2018-07-08T19:08:13.960Z,102004.06
2018-07-08T19:11:38.489Z,102010.27
2018-07-08T19:15:02.940Z,102012.17
2018-07-08T19:18:27.407Z,102011.06
2018-07-08T19:21:51.916Z,102011.78
2018-07-08T19:25:16.412Z,102013.17
2018-07-08T19:28:40.977Z,102013.85
2018-07-08T19:32:05.750Z,102016.47
2018-07-08T19:35:31.107Z,102021.97
2018-07-08T19:38:55.755Z,102021.11
2018-07-08T19:42:20.229Z,102027.47
2018-07-08T19:45:44.833Z,102027.84
2018-07-08T19:49:09.261Z,102036.11
2018-07-08T19:52:33.661Z,102035.35
2018-07-08T19:55:58.950Z,102034.80
2018-07-08T19:59:24.416Z,102038.23
2018-07-08T20:02:48.857Z,102044.92
2018-07-08T20:06:13.308Z,102047.82
2018-07-08T20:09:37.761Z,102045.06
2018-07-08T20:13:02.249Z,102055.41
2018-07-08T20:16:26.856Z,102054.55
2018-07-08T20:19:51.375Z,102055.19
2018-07-08T20:23:15.862Z,102061.22
2018-07-08T20:26:40.400Z,102063.57
2018-07-08T20:30:05.029Z,102063.22
2018-07-08T20:33:32.862Z,102077.23
2018-07-08T20:36:58.155Z,102075.67
2018-07-08T20:40:22.695Z,102076.53
2018-07-08T20:43:47.206Z,102074.11
2018-07-08T20:47:11.685Z,102078.09
2018-07-08T20:50:36.275Z,102076.09
2018-07-08T20:54:00.742Z,102079.31
2018-07-08T20:57:25.210Z,102083.69
2018-07-08T21:00:49.755Z,102089.42
2018-07-08T21:04:14.218Z,102086.67
2018-07-08T21:07:38.719Z,102089.33
2018-07-08T21:11:03.374Z,102088.72
2018-07-08T21:14:27.970Z,102085.97
2018-07-08T21:17:52.451Z,102092.58
2018-07-08T21:21:16.944Z,102093.89
2018-07-08T21:24:41.557Z,102104.47
2018-07-08T21:28:21.929Z,102101.37
2018-07-08T21:31:46.714Z,102097.59
2018-07-08T21:35:11.198Z,102102.90
2018-07-08T21:38:35.927Z,102105.38
2018-07-08T21:42:00.437Z,102102.23
2018-07-08T21:45:25.110Z,102103.56
2018-07-08T21:48:49.586Z,102104.12
2018-07-08T21:52:14.016Z,102100.81
2018-07-08T21:55:38.476Z,102104.70
2018-07-08T21:59:02.928Z,102106.11
2018-07-08T22:02:27.425Z,102102.14
2018-07-08T22:05:51.894Z,102102.09
2018-07-08T22:09:16.379Z,102105.59
2018-07-08T22:12:40.822Z,102106.08
2018-07-08T22:16:05.508Z,102103.43
2018-07-08T22:19:29.960Z,102112.25
2018-07-08T22:22:54.888Z,102110.64
2018-07-08T22:26:19.327Z,102109.32
2018-07-08T22:29:43.797Z,102113.77
2018-07-08T22:33:08.287Z,102114.04
2018-07-08T22:36:33.002Z,102113.53
2018-07-08T22:39:57.526Z,102107.52
2018-07-08T22:43:22.203Z,102113.37
2018-07-08T22:46:46.743Z,102113.70
2018-07-08T22:50:11.234Z,102107.77
2018-07-08T22:53:35.734Z,102107.38
2018-07-08T22:57:00.169Z,102107.39
2018-07-08T23:00:41.854Z,102117.98
2018-07-08T23:04:06.855Z,102111.58
2018-07-08T23:07:31.369Z,102110.55
2018-07-08T23:10:55.897Z,102113.45
2018-07-08T23:14:20.366Z,102104.76
2018-07-08T23:17:46.016Z,102100.69
2018-07-08T23:21:10.515Z,102098.09
2018-07-08T23:24:35.047Z,102109.81
2018-07-08T23:28:00.263Z,102104.84
2018-07-08T23:31:24.750Z,102106.22
2018-07-08T23:34:49.232Z,102106.91
2018-07-08T23:38:13.808Z,102109.20
2018-07-08T23:41:38.344Z,102108.63
2018-07-08T23:45:02.807Z,102112.51
2018-07-08T23:48:30.196Z,102113.34
2018-07-08T23:51:54.593Z,102108.70
2018-07-08T23:55:19.019Z,102117.42
2018-07-08T23:58:44.537Z,102115.75
